Time;durP1;ratioP1;P1;durP2;ratioP2;P2;SDS_P1;SDS_P2;PMS_P1;PMS_P2;Temp;Humidity;BMP_temperature;BMP_pressure;BME280_temperature;BME280_humidity;BME280_pressure;Samples;Min_cycle;Max_cycle;Signal;HPM_P1;HPM_P2
2021/10/10 00:00:59;;;;;;;6.43;5.37;;;5.10;99.90;;;;;;473947;250;27898;-74
2021/10/10 00:03:00;;;;;;;5.95;5.15;;;4.90;99.90;;;;;;473970;250;28124;-75
2021/10/10 00:05:01;;;;;;;7.10;5.25;;;5.00;99.90;;;;;;473932;250;27946;-75
2021/10/10 00:07:02;;;;;;;7.43;5.43;;;4.90;99.90;;;;;;473938;250;27528;-74
2021/10/10 00:09:04;;;;;;;6.95;5.90;;;4.90;99.90;;;;;;473930;250;27462;-75
2021/10/10 00:11:05;;;;;;;7.20;5.82;;;4.90;99.90;;;;;;473943;250;27535;-75
2021/10/10 00:13:06;;;;;;;6.57;5.20;;;4.90;99.90;;;;;;473977;250;27539;-75
2021/10/10 00:15:07;;;;;;;7.20;5.57;;;4.90;99.90;;;;;;474116;250;27548;-78
2021/10/10 00:17:09;;;;;;;8.10;5.60;;;4.90;99.90;;;;;;474014;251;27430;-76
2021/10/10 00:19:10;;;;;;;6.00;5.12;;;4.90;99.90;;;;;;473969;250;27460;-75
2021/10/10 00:21:11;;;;;;;6.87;5.78;;;4.90;99.90;;;;;;473950;250;28210;-75
2021/10/10 00:23:12;;;;;;;6.72;5.15;;;4.80;99.90;;;;;;473973;250;28108;-75
2021/10/10 00:25:14;;;;;;;7.80;5.37;;;4.70;99.90;;;;;;474180;250;27950;-75
2021/10/10 00:27:15;;;;;;;6.00;5.18;;;4.60;99.90;;;;;;474136;250;27510;-75
2021/10/10 00:29:17;;;;;;;6.65;5.30;;;4.60;99.90;;;;;;474123;250;27457;-75
2021/10/10 00:31:17;;;;;;;5.43;4.75;;;4.70;99.90;;;;;;473902;250;27453;-75
2021/10/10 00:33:19;;;;;;;6.80;4.95;;;4.70;99.90;;;;;;473917;250;27413;-75
2021/10/10 00:35:20;;;;;;;7.60;6.28;;;4.70;99.90;;;;;;473948;250;27548;-75
2021/10/10 00:37:21;;;;;;;7.40;5.93;;;4.70;99.90;;;;;;473914;251;27553;-75
2021/10/10 00:39:22;;;;;;;7.62;5.32;;;4.70;99.90;;;;;;473942;250;27540;-75
2021/10/10 00:41:24;;;;;;;7.35;5.62;;;4.70;99.90;;;;;;473955;250;27450;-75
2021/10/10 00:43:25;;;;;;;8.13;6.03;;;4.70;99.90;;;;;;473983;250;27901;-73
2021/10/10 00:45:26;;;;;;;6.68;5.35;;;4.80;99.90;;;;;;473945;250;28047;-73
2021/10/10 00:47:27;;;;;;;6.57;5.40;;;4.70;99.90;;;;;;473946;250;27912;-73
2021/10/10 00:49:29;;;;;;;7.22;6.00;;;4.60;99.90;;;;;;473939;250;28008;-74
2021/10/10 00:51:30;;;;;;;6.90;5.47;;;4.60;99.90;;;;;;473948;250;27457;-75
2021/10/10 00:53:31;;;;;;;9.05;5.43;;;4.60;99.90;;;;;;473960;250;27456;-75
2021/10/10 00:55:32;;;;;;;7.25;5.80;;;4.50;99.90;;;;;;473935;250;27545;-75
2021/10/10 00:57:34;;;;;;;6.10;5.15;;;4.60;99.90;;;;;;473946;250;27436;-75
2021/10/10 00:59:35;;;;;;;10.27;5.25;;;4.50;99.90;;;;;;473946;250;27501;-75
2021/10/10 01:01:36;;;;;;;7.80;5.95;;;4.60;99.90;;;;;;473959;250;27481;-75
2021/10/10 01:03:37;;;;;;;7.70;5.07;;;4.60;99.90;;;;;;473962;250;27424;-75
2021/10/10 01:05:39;;;;;;;5.22;4.47;;;4.60;99.90;;;;;;473963;250;27464;-75
2021/10/10 01:07:40;;;;;;;8.45;5.37;;;4.70;99.90;;;;;;473933;250;28684;-75
2021/10/10 01:09:41;;;;;;;7.12;5.65;;;4.70;99.90;;;;;;473932;250;27992;-76
2021/10/10 01:11:42;;;;;;;9.35;5.75;;;4.60;99.90;;;;;;473955;250;27929;-75
2021/10/10 01:13:44;;;;;;;5.62;5.00;;;4.60;99.90;;;;;;473948;250;27933;-74
2021/10/10 01:15:45;;;;;;;5.97;5.30;;;4.60;99.90;;;;;;473931;250;27457;-75
2021/10/10 01:17:46;;;;;;;7.65;5.20;;;4.60;99.90;;;;;;473984;250;27453;-75
2021/10/10 01:19:47;;;;;;;7.93;5.80;;;4.60;99.90;;;;;;473962;250;27421;-75
2021/10/10 01:21:49;;;;;;;6.80;5.25;;;4.60;99.90;;;;;;473980;250;27461;-75
2021/10/10 01:23:50;;;;;;;7.40;5.50;;;4.60;99.90;;;;;;473976;250;27428;-75
2021/10/10 01:25:51;;;;;;;7.87;5.50;;;4.60;99.90;;;;;;473986;250;27572;-75
2021/10/10 01:27:52;;;;;;;5.65;4.90;;;4.50;99.90;;;;;;473976;250;27880;-75
2021/10/10 01:29:54;;;;;;;7.70;5.85;;;4.50;99.90;;;;;;474012;250;27514;-75
2021/10/10 01:31:55;;;;;;;5.43;4.93;;;4.40;99.90;;;;;;474000;250;27555;-75
2021/10/10 01:33:56;;;;;;;7.53;5.70;;;4.40;99.90;;;;;;473998;250;28015;-75
2021/10/10 01:35:57;;;;;;;8.55;5.75;;;4.30;99.90;;;;;;474004;250;27932;-75
2021/10/10 01:37:59;;;;;;;6.43;5.00;;;4.30;99.90;;;;;;473992;250;27937;-75
2021/10/10 01:40:00;;;;;;;6.12;5.30;;;4.30;99.90;;;;;;473992;250;27468;-75
2021/10/10 01:42:01;;;;;;;9.63;5.75;;;4.30;99.90;;;;;;474001;245;27467;-75
2021/10/10 01:44:02;;;;;;;6.97;5.22;;;4.40;99.90;;;;;;474004;250;27436;-75
2021/10/10 01:46:04;;;;;;;7.25;5.53;;;4.40;99.90;;;;;;473976;250;27541;-76
2021/10/10 01:48:05;;;;;;;7.22;4.72;;;4.40;99.90;;;;;;473956;250;27472;-74
2021/10/10 01:50:06;;;;;;;6.62;5.60;;;4.30;99.90;;;;;;473963;250;27469;-75
2021/10/10 01:52:07;;;;;;;6.60;5.25;;;4.30;99.90;;;;;;473972;250;27472;-75
2021/10/10 01:54:09;;;;;;;6.45;5.50;;;4.20;99.90;;;;;;473971;250;27458;-74
2021/10/10 01:56:10;;;;;;;6.37;5.47;;;4.10;99.90;;;;;;473957;250;27433;-75
2021/10/10 01:58:11;;;;;;;7.87;5.72;;;4.10;99.90;;;;;;473972;250;27549;-75
2021/10/10 02:00:12;;;;;;;8.93;6.68;;;4.10;99.90;;;;;;473982;250;27880;-75
2021/10/10 02:02:14;;;;;;;6.28;5.43;;;4.10;99.90;;;;;;473973;250;27928;-75
2021/10/10 02:04:15;;;;;;;5.05;4.55;;;4.10;99.90;;;;;;473936;250;28109;-75
2021/10/10 02:06:16;;;;;;;6.82;5.05;;;4.10;99.90;;;;;;473988;250;28048;-75
2021/10/10 02:08:17;;;;;;;6.50;5.37;;;4.20;99.90;;;;;;473959;250;27460;-75
2021/10/10 02:10:19;;;;;;;6.37;5.70;;;4.10;99.90;;;;;;473981;250;27434;-74
2021/10/10 02:12:20;;;;;;;5.45;4.93;;;4.00;99.90;;;;;;473975;250;27562;-78
2021/10/10 02:14:21;;;;;;;5.10;4.60;;;4.00;99.90;;;;;;473963;250;27549;-75
2021/10/10 02:16:22;;;;;;;5.68;5.10;;;4.00;99.90;;;;;;473944;250;27423;-75
2021/10/10 02:18:24;;;;;;;5.75;4.60;;;4.00;99.90;;;;;;473941;250;27520;-75
2021/10/10 02:20:25;;;;;;;7.68;6.03;;;4.00;99.90;;;;;;473930;250;27417;-75
2021/10/10 02:22:27;;;;;;;6.15;5.07;;;4.00;99.90;;;;;;473905;250;27488;-75
2021/10/10 02:24:27;;;;;;;6.53;5.53;;;4.00;99.90;;;;;;473940;250;27448;-75
2021/10/10 02:26:29;;;;;;;7.65;5.75;;;4.00;99.90;;;;;;473958;250;27425;-75
2021/10/10 02:28:30;;;;;;;5.97;4.97;;;4.00;99.90;;;;;;473955;250;28039;-75
2021/10/10 02:30:31;;;;;;;7.95;5.32;;;4.00;99.90;;;;;;473968;250;28048;-75
2021/10/10 02:32:32;;;;;;;5.87;5.12;;;4.00;99.90;;;;;;473958;250;27913;-75
2021/10/10 02:34:34;;;;;;;6.82;5.60;;;4.00;99.90;;;;;;473963;250;27469;-75
2021/10/10 02:36:35;;;;;;;8.95;5.53;;;3.90;99.90;;;;;;473947;250;27429;-75
2021/10/10 02:38:36;;;;;;;6.10;5.45;;;3.90;99.90;;;;;;473935;250;27463;-75
2021/10/10 02:40:38;;;;;;;9.15;6.07;;;3.80;99.90;;;;;;473958;250;27556;-75
2021/10/10 02:42:39;;;;;;;7.03;5.50;;;3.80;99.90;;;;;;473944;250;27437;-74
2021/10/10 02:44:40;;;;;;;6.22;4.90;;;3.70;99.90;;;;;;473944;250;27466;-75
2021/10/10 02:46:41;;;;;;;6.97;5.10;;;3.60;99.90;;;;;;473963;250;27536;-75
2021/10/10 02:48:43;;;;;;;7.07;5.87;;;3.50;99.90;;;;;;473935;250;27473;-75
2021/10/10 02:50:44;;;;;;;6.43;5.70;;;3.50;99.90;;;;;;473951;250;27486;-75
2021/10/10 02:52:45;;;;;;;6.82;5.70;;;3.50;99.90;;;;;;473934;250;27445;-75
2021/10/10 02:54:46;;;;;;;8.70;5.90;;;3.50;99.90;;;;;;473904;250;27460;-75
2021/10/10 02:56:48;;;;;;;6.15;5.55;;;3.50;99.90;;;;;;473937;250;27962;-75
2021/10/10 02:58:49;;;;;;;9.75;6.30;;;3.60;99.90;;;;;;473964;250;27890;-75
2021/10/10 03:00:50;;;;;;;8.05;5.55;;;3.60;99.90;;;;;;473974;250;29782;-75
2021/10/10 03:02:51;;;;;;;9.98;5.60;;;3.70;99.90;;;;;;473992;250;27938;-75
2021/10/10 03:04:53;;;;;;;6.22;4.90;;;3.70;99.90;;;;;;473987;250;27477;-75
2021/10/10 03:06:54;;;;;;;7.80;5.50;;;3.80;99.90;;;;;;473976;250;27504;-75
2021/10/10 03:08:55;;;;;;;8.15;5.10;;;3.80;99.90;;;;;;473881;250;27470;-75
2021/10/10 03:10:56;;;;;;;6.15;5.25;;;3.80;99.90;;;;;;473979;250;27441;-75
2021/10/10 03:12:58;;;;;;;6.78;5.10;;;3.80;99.90;;;;;;473778;250;27481;-75
2021/10/10 03:14:59;;;;;;;6.50;4.85;;;3.80;99.90;;;;;;473969;250;27528;-75
2021/10/10 03:17:00;;;;;;;7.47;5.22;;;3.80;99.90;;;;;;473947;250;27421;-75
2021/10/10 03:19:01;;;;;;;7.60;5.10;;;3.70;99.90;;;;;;473947;250;27559;-74
2021/10/10 03:21:03;;;;;;;5.53;4.93;;;3.70;99.90;;;;;;473951;250;27534;-75
2021/10/10 03:23:04;;;;;;;5.95;5.35;;;3.60;99.90;;;;;;473949;250;27421;-75
2021/10/10 03:25:05;;;;;;;5.57;5.00;;;3.50;99.90;;;;;;473974;250;28027;-75
2021/10/10 03:27:06;;;;;;;6.22;5.60;;;3.50;99.90;;;;;;473970;250;27886;-75
2021/10/10 03:29:08;;;;;;;5.40;4.75;;;3.40;99.90;;;;;;473936;250;27955;-75
2021/10/10 03:31:09;;;;;;;5.18;4.68;;;3.40;99.90;;;;;;474020;250;27937;-75
2021/10/10 03:33:10;;;;;;;5.40;4.85;;;3.30;99.90;;;;;;473999;250;27449;-75
2021/10/10 03:35:11;;;;;;;5.10;4.50;;;3.30;99.90;;;;;;474015;250;27556;-75
2021/10/10 03:37:13;;;;;;;7.10;5.30;;;3.30;99.90;;;;;;474006;250;27434;-75
2021/10/10 03:39:14;;;;;;;8.10;5.45;;;3.30;99.90;;;;;;473964;250;27576;-75
2021/10/10 03:41:15;;;;;;;6.57;5.20;;;3.40;99.90;;;;;;473974;250;27460;-74
2021/10/10 03:43:16;;;;;;;8.32;5.60;;;3.40;99.90;;;;;;473992;250;27426;-74
2021/10/10 03:45:18;;;;;;;7.15;5.53;;;3.40;99.90;;;;;;474029;250;27456;-75
2021/10/10 03:47:19;;;;;;;7.07;5.72;;;3.40;99.90;;;;;;473979;250;27436;-75
2021/10/10 03:49:20;;;;;;;7.05;5.50;;;3.40;99.90;;;;;;473954;250;27442;-74
2021/10/10 03:51:21;;;;;;;7.35;5.70;;;3.40;99.90;;;;;;473956;250;27476;-75
2021/10/10 03:53:31;;;;;;;7.15;6.20;;;3.50;99.90;;;;;;473962;250;27985;-75
2021/10/10 03:57:28;;;;;;;6.62;5.80;;;3.50;99.90;;;;;;473958;250;27460;-75
2021/10/10 03:59:29;;;;;;;6.85;5.50;;;3.40;99.90;;;;;;473945;250;27472;-75
2021/10/10 04:01:30;;;;;;;6.32;5.57;;;3.20;99.90;;;;;;473971;250;27442;-75
2021/10/10 04:03:32;;;;;;;8.30;5.60;;;3.20;99.90;;;;;;473947;250;27568;-74
2021/10/10 04:07:34;;;;;;;6.30;5.55;;;3.20;99.90;;;;;;473970;250;27465;-74
2021/10/10 04:09:35;;;;;;;7.70;5.50;;;3.30;99.90;;;;;;473943;250;27952;-74
2021/10/10 04:11:36;;;;;;;8.27;5.90;;;3.30;99.90;;;;;;473959;250;27515;-75
2021/10/10 04:13:38;;;;;;;7.28;5.22;;;3.40;99.90;;;;;;473906;250;27525;-75
2021/10/10 04:15:39;;;;;;;13.52;6.03;;;3.40;99.90;;;;;;473955;250;27425;-75
2021/10/10 04:17:40;;;;;;;7.57;5.65;;;3.40;99.90;;;;;;473965;250;27908;-75
2021/10/10 04:19:41;;;;;;;9.73;6.00;;;3.30;99.90;;;;;;473964;250;27940;-75
2021/10/10 04:21:43;;;;;;;6.93;5.60;;;3.20;99.90;;;;;;473973;250;27886;-75
2021/10/10 04:23:44;;;;;;;6.55;4.85;;;3.10;99.90;;;;;;473969;250;29064;-75
2021/10/10 04:25:45;;;;;;;7.72;5.47;;;3.00;99.90;;;;;;473969;250;27504;-74
2021/10/10 04:27:46;;;;;;;7.15;6.03;;;3.00;99.90;;;;;;473945;250;27520;-74
2021/10/10 04:29:48;;;;;;;9.68;6.72;;;3.00;99.90;;;;;;473938;250;27576;-75
2021/10/10 04:31:49;;;;;;;5.82;5.22;;;3.00;99.90;;;;;;473960;250;27417;-75
2021/10/10 04:33:50;;;;;;;9.70;5.82;;;3.10;99.90;;;;;;473949;250;27464;-74
2021/10/10 04:35:51;;;;;;;7.82;5.90;;;3.10;99.90;;;;;;473946;250;27465;-74
2021/10/10 04:37:53;;;;;;;5.60;4.85;;;3.10;99.90;;;;;;473944;250;27452;-74
2021/10/10 04:39:54;;;;;;;7.18;5.25;;;3.10;99.90;;;;;;473970;250;27552;-74
2021/10/10 04:41:55;;;;;;;7.70;5.70;;;3.10;99.90;;;;;;473972;250;27544;-74
2021/10/10 04:43:56;;;;;;;6.72;5.95;;;3.00;99.90;;;;;;473938;250;28040;-74
2021/10/10 04:45:58;;;;;;;8.90;6.15;;;3.00;99.90;;;;;;473949;250;28737;-74
2021/10/10 04:47:59;;;;;;;6.68;6.07;;;3.10;99.90;;;;;;473929;250;28017;-74
2021/10/10 04:50:00;;;;;;;7.28;6.15;;;3.00;99.90;;;;;;473947;250;28083;-74
2021/10/10 04:52:05;;;;;;;6.50;5.90;;;2.90;99.90;;;;;;473983;250;27981;-74
2021/10/10 04:54:03;;;;;;;7.85;6.80;;;2.80;99.90;;;;;;473650;251;27461;-74
2021/10/10 04:56:04;;;;;;;7.97;5.97;;;2.80;99.90;;;;;;473881;250;27448;-74
2021/10/10 04:58:05;;;;;;;8.32;6.43;;;2.80;99.90;;;;;;473984;250;27509;-74
2021/10/10 05:00:06;;;;;;;7.32;6.03;;;2.90;99.90;;;;;;473987;250;27456;-74
2021/10/10 05:02:08;;;;;;;6.85;6.25;;;2.90;99.90;;;;;;473978;250;27508;-74
2021/10/10 05:04:09;;;;;;;8.75;6.82;;;3.00;99.90;;;;;;473987;250;27574;-74
2021/10/10 05:06:10;;;;;;;8.27;6.15;;;3.00;99.90;;;;;;473991;250;27687;-74
2021/10/10 05:08:11;;;;;;;6.80;6.20;;;2.90;99.90;;;;;;473983;250;27456;-74
2021/10/10 05:10:13;;;;;;;7.22;6.35;;;2.80;99.90;;;;;;473970;250;27462;-75
2021/10/10 05:12:14;;;;;;;6.70;5.72;;;2.80;99.90;;;;;;473982;250;27479;-75
2021/10/10 05:14:15;;;;;;;7.82;6.25;;;2.80;99.90;;;;;;473989;250;28036;-74
2021/10/10 05:16:16;;;;;;;7.75;6.95;;;2.80;99.90;;;;;;473964;250;27968;-74
2021/10/10 05:18:18;;;;;;;6.95;5.95;;;2.80;99.90;;;;;;473990;250;27860;-74
2021/10/10 05:20:19;;;;;;;8.20;6.78;;;2.90;99.90;;;;;;473957;250;27971;-74
2021/10/10 05:22:20;;;;;;;6.97;5.62;;;2.90;99.90;;;;;;473966;246;27426;-74
2021/10/10 05:24:21;;;;;;;7.75;5.70;;;2.90;99.90;;;;;;473966;250;27547;-74
2021/10/10 05:26:23;;;;;;;9.95;5.85;;;2.90;99.90;;;;;;473911;250;27538;-74
2021/10/10 05:28:24;;;;;;;6.40;5.80;;;2.70;99.90;;;;;;473975;250;27500;-74
2021/10/10 05:30:25;;;;;;;8.07;5.65;;;2.60;99.90;;;;;;473965;250;27568;-73
2021/10/10 05:32:27;;;;;;;7.32;6.07;;;2.60;99.90;;;;;;473988;250;27456;-74
2021/10/10 05:34:28;;;;;;;7.07;6.32;;;2.60;99.90;;;;;;473989;250;27547;-74
2021/10/10 05:36:29;;;;;;;7.20;6.40;;;2.70;99.90;;;;;;473987;250;27485;-74
2021/10/10 05:38:30;;;;;;;7.40;6.60;;;2.70;99.90;;;;;;473989;250;27519;-73
2021/10/10 05:40:32;;;;;;;5.80;5.20;;;2.70;99.90;;;;;;474004;250;27465;-74
2021/10/10 05:42:33;;;;;;;10.60;5.80;;;2.70;99.90;;;;;;473988;250;27521;-74
2021/10/10 05:44:34;;;;;;;6.60;5.75;;;2.70;99.90;;;;;;474002;250;27432;-74
2021/10/10 05:46:35;;;;;;;6.30;5.15;;;2.70;99.90;;;;;;474000;250;27463;-74
2021/10/10 05:48:37;;;;;;;5.68;5.10;;;2.70;99.90;;;;;;473775;250;28415;-73
2021/10/10 05:50:38;;;;;;;6.37;5.78;;;2.70;99.90;;;;;;473912;250;27924;-74
2021/10/10 05:52:39;;;;;;;6.10;5.50;;;2.70;99.90;;;;;;473984;250;27968;-73
2021/10/10 05:54:40;;;;;;;7.60;5.97;;;2.70;99.90;;;;;;473981;250;27980;-73
2021/10/10 05:56:42;;;;;;;7.00;5.47;;;2.70;99.90;;;;;;473949;250;27564;-74
2021/10/10 05:58:44;;;;;;;6.22;5.62;;;2.70;99.90;;;;;;473963;250;27425;-74
2021/10/10 06:00:44;;;;;;;6.70;6.00;;;2.70;99.90;;;;;;473880;251;27472;-74
2021/10/10 06:02:45;;;;;;;7.07;6.30;;;2.70;99.90;;;;;;473956;250;27532;-74
2021/10/10 06:04:47;;;;;;;6.45;5.40;;;2.80;99.90;;;;;;473990;250;27505;-74
2021/10/10 06:06:48;;;;;;;5.90;5.40;;;2.90;99.90;;;;;;473978;250;27498;-73
2021/10/10 06:08:49;;;;;;;7.25;5.80;;;2.80;99.90;;;;;;473933;250;27425;-74
2021/10/10 06:10:50;;;;;;;6.70;5.53;;;2.80;99.90;;;;;;473967;250;27457;-74
2021/10/10 06:12:52;;;;;;;6.75;6.05;;;2.70;99.90;;;;;;473987;250;27468;-74
2021/10/10 06:14:53;;;;;;;9.52;6.53;;;2.70;99.90;;;;;;473971;250;27433;-75
2021/10/10 06:16:55;;;;;;;6.80;5.70;;;2.70;99.90;;;;;;473933;250;27949;-74
2021/10/10 06:18:55;;;;;;;6.80;6.10;;;2.70;99.90;;;;;;473956;250;28697;-74
2021/10/10 06:20:57;;;;;;;9.10;6.07;;;2.70;99.90;;;;;;473947;250;27882;-74
2021/10/10 06:22:58;;;;;;;8.95;6.80;;;2.70;99.90;;;;;;473977;250;27473;-74
2021/10/10 06:24:59;;;;;;;9.27;6.70;;;2.80;99.90;;;;;;473965;250;27453;-74
2021/10/10 06:27:00;;;;;;;6.57;5.72;;;2.90;99.90;;;;;;473962;250;27472;-74
2021/10/10 06:29:02;;;;;;;6.72;5.87;;;2.90;99.90;;;;;;473956;250;27461;-74
2021/10/10 06:31:03;;;;;;;8.77;5.93;;;3.00;99.90;;;;;;473925;250;27429;-73
2021/10/10 06:33:04;;;;;;;8.52;6.40;;;3.00;99.90;;;;;;473957;250;27462;-74
2021/10/10 06:35:06;;;;;;;5.95;5.30;;;3.00;99.90;;;;;;473981;250;27425;-74
2021/10/10 06:37:07;;;;;;;5.97;5.37;;;3.00;99.90;;;;;;473969;250;27476;-74
2021/10/10 06:39:08;;;;;;;5.85;5.15;;;2.90;99.90;;;;;;473977;250;27457;-74
2021/10/10 06:41:09;;;;;;;5.80;4.90;;;3.00;99.90;;;;;;473980;250;27447;-74
2021/10/10 06:43:10;;;;;;;6.25;5.62;;;2.90;99.90;;;;;;473982;250;27456;-74
2021/10/10 06:45:12;;;;;;;7.37;5.60;;;2.80;99.90;;;;;;473975;250;27947;-74
2021/10/10 06:47:13;;;;;;;6.40;5.78;;;2.80;99.90;;;;;;473956;250;28051;-74
2021/10/10 06:49:14;;;;;;;9.30;6.12;;;2.70;99.90;;;;;;473962;250;28003;-74
2021/10/10 06:51:15;;;;;;;7.87;6.20;;;2.80;99.90;;;;;;473922;250;27965;-74
2021/10/10 06:53:17;;;;;;;6.32;5.68;;;2.90;99.90;;;;;;473967;250;27464;-73
2021/10/10 06:55:18;;;;;;;7.28;6.18;;;3.00;99.90;;;;;;473982;250;27437;-74
2021/10/10 06:57:19;;;;;;;6.85;6.07;;;3.00;99.90;;;;;;473987;250;27525;-74
2021/10/10 06:59:20;;;;;;;8.35;6.12;;;3.10;99.90;;;;;;473927;250;27546;-74
2021/10/10 07:01:22;;;;;;;5.95;5.35;;;3.20;99.90;;;;;;473959;250;27510;-74
2021/10/10 07:03:23;;;;;;;6.55;5.68;;;3.30;99.90;;;;;;473955;250;27477;-74
2021/10/10 07:05:24;;;;;;;7.50;5.07;;;3.30;99.90;;;;;;474004;250;27540;-74
2021/10/10 07:07:25;;;;;;;6.50;5.37;;;3.40;99.90;;;;;;473968;250;27571;-74
2021/10/10 07:09:27;;;;;;;6.53;5.60;;;3.50;99.90;;;;;;473918;250;27540;-73
2021/10/10 07:11:28;;;;;;;5.93;5.32;;;3.50;99.90;;;;;;473925;250;27440;-73
2021/10/10 07:13:29;;;;;;;7.07;5.65;;;3.60;99.90;;;;;;473962;250;28058;-74
2021/10/10 07:15:31;;;;;;;7.43;6.20;;;3.60;99.90;;;;;;473970;250;27874;-73
2021/10/10 07:17:32;;;;;;;6.97;6.10;;;3.70;99.90;;;;;;473927;250;28046;-74
2021/10/10 07:19:52;;;;;;;6.22;5.50;;;3.70;99.90;;;;;;473959;250;27962;-74
2021/10/10 07:22:02;;;;;;;6.78;6.07;;;3.80;99.90;;;;;;473393;251;27503;-74
2021/10/10 07:24:53;;;;;;;6.53;5.32;;;3.90;99.90;;;;;;473775;251;27461;-73
2021/10/10 07:26:07;;;;;;;7.00;5.53;;;4.00;99.90;;;;;;472270;251;27481;-73
2021/10/10 07:28:08;;;;;;;6.95;5.82;;;4.00;99.90;;;;;;473941;250;27438;-73
2021/10/10 07:30:10;;;;;;;6.43;5.75;;;4.10;99.90;;;;;;473889;250;27466;-73
2021/10/10 07:32:11;;;;;;;5.90;5.30;;;4.10;99.90;;;;;;473889;250;27444;-74
2021/10/10 07:34:12;;;;;;;5.80;5.20;;;4.20;99.90;;;;;;473955;250;27419;-74
2021/10/10 07:36:13;;;;;;;6.30;5.50;;;4.30;99.90;;;;;;473966;250;27460;-74
2021/10/10 07:38:15;;;;;;;6.40;5.30;;;4.30;99.90;;;;;;473950;250;27421;-75
2021/10/10 07:40:16;;;;;;;7.15;5.50;;;4.30;99.90;;;;;;473957;250;27537;-74
2021/10/10 07:42:17;;;;;;;7.50;5.60;;;4.30;99.90;;;;;;473942;250;28090;-74
2021/10/10 07:44:18;;;;;;;5.97;5.05;;;4.30;99.90;;;;;;473963;250;28038;-74
2021/10/10 07:46:32;;;;;;;9.07;5.47;;;4.40;99.90;;;;;;473915;250;29360;-74
2021/10/10 07:48:24;;;;;;;6.78;5.60;;;4.40;99.90;;;;;;473275;251;27938;-74
2021/10/10 07:50:25;;;;;;;7.22;5.97;;;4.50;99.90;;;;;;473943;250;27919;-74
2021/10/10 07:52:26;;;;;;;5.55;5.05;;;4.60;99.90;;;;;;473963;250;28016;-74
2021/10/10 07:54:28;;;;;;;7.22;5.60;;;4.70;99.90;;;;;;474024;245;27445;-74
2021/10/10 07:56:29;;;;;;;6.90;5.20;;;4.80;99.90;;;;;;474013;250;27401;-75
2021/10/10 07:58:30;;;;;;;6.97;5.80;;;4.80;99.90;;;;;;473986;250;27456;-74
2021/10/10 08:00:31;;;;;;;6.78;5.40;;;4.90;99.90;;;;;;473968;250;27520;-74
2021/10/10 08:02:33;;;;;;;5.93;5.43;;;5.00;99.90;;;;;;474004;250;27513;-74
2021/10/10 08:04:34;;;;;;;6.65;5.43;;;5.00;99.90;;;;;;474069;250;27476;-75
2021/10/10 08:06:35;;;;;;;7.85;5.97;;;5.10;99.90;;;;;;474013;250;27494;-74
2021/10/10 08:08:36;;;;;;;6.87;5.82;;;5.20;99.90;;;;;;473985;250;27456;-74
2021/10/10 08:10:38;;;;;;;6.03;5.18;;;5.30;99.90;;;;;;473949;250;27453;-73
2021/10/10 08:12:39;;;;;;;6.40;5.78;;;5.40;99.90;;;;;;473926;250;27869;-73
2021/10/10 08:14:40;;;;;;;7.72;5.90;;;5.50;99.90;;;;;;473954;250;28093;-73
2021/10/10 08:16:41;;;;;;;6.72;6.03;;;5.60;99.90;;;;;;473983;250;27464;-73
2021/10/10 08:18:43;;;;;;;6.53;5.60;;;5.70;99.90;;;;;;473983;250;27449;-73
2021/10/10 08:20:46;;;;;;;9.75;6.62;;;;;;;;;;474008;250;27532;-75
2021/10/10 08:22:49;;;;;;;8.07;6.50;;;;;;;;;;474003;250;26336;-73
2021/10/10 08:24:50;;;;;;;14.55;6.47;;;;;;;;;;473975;250;26768;-74
2021/10/10 08:26:52;;;;;;;7.50;6.45;;;;;;;;;;474030;250;26325;-73
2021/10/10 08:28:54;;;;;;;7.70;6.57;;;;;;;;;;474026;250;26317;-73
2021/10/10 08:30:57;;;;;;;7.75;6.82;;;;;;;;;;474021;250;26361;-76
2021/10/10 08:32:59;;;;;;;7.47;6.70;;;;;;;;;;473952;250;26370;-73
2021/10/10 08:35:02;;;;;;;8.50;6.72;;;;;;;;;;474036;250;26313;-73
2021/10/10 08:37:03;;;;;;;7.37;5.97;;;;;;;;;;474063;250;26396;-75
2021/10/10 08:39:05;;;;;;;7.60;6.80;;;;;;;;;;474048;250;27523;-76
2021/10/10 08:41:07;;;;;;;9.80;6.12;;;;;;;;;;473987;250;26514;-73
2021/10/10 08:43:10;;;;;;;7.28;6.45;;;;;;;;;;473995;250;26780;-73
2021/10/10 08:45:20;;;;;;;7.90;6.80;;;;;;;;;;473995;250;26328;-73
2021/10/10 08:47:19;;;;;;;10.35;6.20;;;7.30;99.90;;;;;;473910;250;26401;-73
2021/10/10 08:49:20;;;;;;;10.23;7.05;;;7.40;99.90;;;;;;474005;250;27903;-73
2021/10/10 08:51:21;;;;;;;8.77;7.20;;;7.40;99.90;;;;;;474068;250;27465;-76
2021/10/10 08:53:23;;;;;;;9.25;7.47;;;7.70;99.90;;;;;;473997;250;27472;-73
2021/10/10 08:55:25;;;;;;;11.00;7.45;;;7.90;99.90;;;;;;474031;250;27562;-73
2021/10/10 08:57:25;;;;;;;11.83;7.37;;;8.00;99.90;;;;;;473967;251;27457;-75
2021/10/10 08:59:27;;;;;;;9.50;7.77;;;8.00;99.90;;;;;;474075;250;28808;-74
2021/10/10 09:01:32;;;;;;;10.77;8.17;;;8.00;99.90;;;;;;473989;250;28044;-76
2021/10/10 09:03:29;;;;;;;10.87;7.80;;;8.20;99.90;;;;;;473675;251;29257;-76
2021/10/10 09:05:30;;;;;;;9.83;7.13;;;8.30;99.90;;;;;;473887;250;28324;-75
2021/10/10 09:07:31;;;;;;;10.80;7.93;;;8.40;99.90;;;;;;473812;250;28402;-76
2021/10/10 09:09:33;;;;;;;11.47;7.57;;;8.50;99.90;;;;;;474058;250;27920;-76
2021/10/10 09:11:34;;;;;;;14.00;7.80;;;8.40;99.90;;;;;;474010;250;27832;-76
2021/10/10 09:13:35;;;;;;;12.80;7.67;;;8.40;99.90;;;;;;473999;249;27688;-76
2021/10/10 09:15:36;;;;;;;9.27;7.57;;;8.50;99.90;;;;;;473908;250;27881;-75
2021/10/10 09:17:38;;;;;;;11.30;7.97;;;8.50;99.90;;;;;;474018;250;27597;-76
2021/10/10 09:19:39;;;;;;;11.63;7.90;;;8.60;99.90;;;;;;473982;250;27793;-76
2021/10/10 09:21:41;;;;;;;12.10;8.70;;;8.90;99.90;;;;;;474034;250;27914;-76
2021/10/10 09:23:41;;;;;;;10.83;8.13;;;9.00;99.90;;;;;;474063;250;28427;-76
2021/10/10 09:25:43;;;;;;;11.33;8.00;;;9.00;99.90;;;;;;474016;250;28066;-78
2021/10/10 09:27:44;;;;;;;11.60;8.20;;;9.30;99.90;;;;;;474053;250;28173;-76
2021/10/10 09:29:45;;;;;;;15.20;9.23;;;9.50;99.90;;;;;;474015;250;27864;-76
2021/10/10 09:31:48;;;;;;;14.13;10.00;;;9.70;99.90;;;;;;474011;250;28014;-75
2021/10/10 09:33:50;;;;;;;14.13;9.00;;;9.80;99.90;;;;;;473955;250;27945;-76
2021/10/10 09:35:50;;;;;;;13.20;8.40;;;9.70;99.90;;;;;;473912;251;27527;-76
2021/10/10 09:37:54;;;;;;;11.67;9.00;;;9.60;99.90;;;;;;474019;250;28065;-76
2021/10/10 09:40:00;;;;;;;14.07;9.03;;;9.90;99.90;;;;;;473739;251;28074;-75
2021/10/10 09:41:58;;;;;;;11.20;8.27;;;10.00;99.90;;;;;;473520;251;27956;-75
2021/10/10 09:43:57;;;;;;;10.33;8.00;;;9.80;99.90;;;;;;473873;251;27642;-73
2021/10/10 09:45:59;;;;;;;10.70;8.80;;;9.90;99.90;;;;;;473498;251;27946;-76
2021/10/10 09:48:01;;;;;;;11.70;8.70;;;9.90;99.90;;;;;;474030;250;27811;-77
2021/10/10 09:50:01;;;;;;;13.47;8.87;;;9.90;99.90;;;;;;474001;249;28122;-76
2021/10/10 09:52:02;;;;;;;9.60;7.60;;;9.90;99.90;;;;;;474043;250;27804;-76
2021/10/10 09:54:03;;;;;;;11.27;7.67;;;9.90;99.90;;;;;;474024;250;28356;-74
2021/10/10 09:56:06;;;;;;;8.67;6.73;;;9.80;99.90;;;;;;474039;250;28452;-76
2021/10/10 09:58:06;;;;;;;12.00;7.43;;;9.80;99.90;;;;;;473966;251;28579;-76
2021/10/10 10:00:07;;;;;;;9.10;7.27;;;9.80;99.90;;;;;;474033;250;27880;-76
2021/10/10 10:02:08;;;;;;;12.20;8.20;;;10.20;99.90;;;;;;474063;250;27693;-76
2021/10/10 10:04:11;;;;;;;10.97;8.37;;;10.40;99.90;;;;;;474088;250;27781;-76
2021/10/10 10:06:11;;;;;;;12.30;7.50;;;10.30;99.90;;;;;;474052;251;28003;-76
2021/10/10 10:08:12;;;;;;;11.10;8.20;;;10.30;99.90;;;;;;474111;250;27928;-76
2021/10/10 10:10:13;;;;;;;10.80;8.20;;;10.50;99.90;;;;;;474043;250;27979;-76
2021/10/10 10:12:14;;;;;;;11.33;7.63;;;10.50;99.90;;;;;;473991;250;27934;-76
2021/10/10 10:14:16;;;;;;;10.63;8.10;;;10.30;99.90;;;;;;474050;251;28387;-76
2021/10/10 10:16:17;;;;;;;16.07;8.40;;;10.40;99.90;;;;;;474024;250;28277;-76
2021/10/10 10:18:18;;;;;;;14.27;8.27;;;10.60;99.90;;;;;;474048;250;28083;-76
2021/10/10 10:20:19;;;;;;;13.80;8.27;;;10.50;99.90;;;;;;474124;250;27973;-76
2021/10/10 10:22:21;;;;;;;9.23;7.53;;;10.60;99.90;;;;;;474063;250;27811;-76
2021/10/10 10:24:22;;;;;;;12.07;8.70;;;10.80;99.90;;;;;;474124;250;27448;-76
2021/10/10 10:26:23;;;;;;;14.53;8.70;;;10.80;99.90;;;;;;474057;250;27912;-76
2021/10/10 10:28:24;;;;;;;15.13;8.90;;;10.80;99.90;;;;;;474059;250;27933;-76
2021/10/10 10:30:26;;;;;;;10.23;7.67;;;10.80;99.90;;;;;;474032;250;27907;-76
2021/10/10 10:32:27;;;;;;;11.53;8.00;;;11.00;99.90;;;;;;474053;250;28408;-76
2021/10/10 10:34:28;;;;;;;12.43;7.73;;;10.90;99.90;;;;;;474048;250;29117;-77
2021/10/10 10:36:29;;;;;;;9.40;8.13;;;11.10;99.90;;;;;;474096;250;28239;-76
2021/10/10 10:38:31;;;;;;;15.30;9.07;;;11.00;99.90;;;;;;474088;250;27932;-76
2021/10/10 10:40:32;;;;;;;12.67;8.23;;;11.10;99.90;;;;;;474028;250;27935;-76
2021/10/10 10:42:33;;;;;;;11.30;8.30;;;11.10;99.90;;;;;;474038;250;27985;-76
2021/10/10 10:44:35;;;;;;;12.30;8.23;;;10.90;99.90;;;;;;473996;250;28244;-76